createdAt,value
2023-05-21T00:01:16.537Z,72.16
2023-05-21T00:06:23.265Z,72.34
2023-05-21T00:11:28.971Z,72.72
2023-05-21T00:16:34.399Z,72.79
2023-05-21T00:21:39.845Z,73.03
2023-05-21T00:26:45.276Z,73.43
2023-05-21T00:31:52.309Z,73.95
2023-05-21T00:36:57.811Z,73.94
2023-05-21T00:42:03.971Z,74.41
2023-05-21T00:47:09.490Z,74.46
2023-05-21T00:52:15.141Z,74.61
2023-05-21T00:57:22.040Z,74.90
2023-05-21T01:02:27.745Z,75.09
2023-05-21T01:07:34.834Z,75.11
2023-05-21T01:12:42.772Z,75.37
2023-05-21T01:17:49.872Z,75.42
2023-05-21T01:22:56.772Z,75.48
2023-05-21T01:28:02.103Z,75.68
2023-05-21T01:33:17.408Z,75.93
2023-05-21T01:38:29.514Z,75.89
2023-05-21T01:43:38.531Z,76.12
2023-05-21T01:48:45.298Z,76.04
2023-05-21T01:53:50.778Z,76.21
2023-05-21T01:58:58.362Z,76.38
2023-05-21T02:04:03.962Z,76.32
2023-05-21T02:09:09.498Z,76.41
2023-05-21T02:14:15.034Z,76.39
2023-05-21T02:19:20.419Z,76.48
2023-05-21T02:24:25.814Z,76.62
2023-05-21T02:29:31.125Z,76.90
2023-05-21T02:34:42.382Z,76.86
2023-05-21T02:39:47.779Z,76.94
2023-05-21T02:44:53.377Z,77.13
2023-05-21T02:50:00.204Z,77.30
2023-05-21T02:55:07.128Z,77.49
2023-05-21T03:00:14.780Z,77.58
2023-05-21T03:05:20.797Z,77.73
2023-05-21T03:10:26.189Z,77.90
2023-05-21T03:15:33.424Z,77.93
2023-05-21T03:20:43.710Z,78.21
2023-05-21T03:25:49.287Z,78.40
2023-05-21T03:30:54.893Z,79.31
2023-05-21T03:36:00.510Z,79.85
2023-05-21T03:41:06.158Z,80.92
2023-05-21T03:46:11.629Z,81.67
2023-05-21T03:51:18.142Z,81.95
2023-05-21T03:56:23.473Z,82.35
2023-05-21T04:01:29.079Z,82.84
2023-05-21T04:06:34.417Z,82.96
2023-05-21T04:11:39.907Z,82.90
2023-05-21T04:16:45.260Z,82.99
2023-05-21T04:21:50.711Z,82.49
2023-05-21T04:26:57.404Z,81.87
2023-05-21T04:32:02.879Z,82.18
2023-05-21T04:37:09.439Z,82.09
2023-05-21T04:42:14.863Z,82.62
2023-05-21T04:47:20.386Z,82.74
2023-05-21T04:52:26.846Z,82.05
2023-05-21T04:57:32.210Z,81.93
2023-05-21T05:02:37.703Z,82.07
2023-05-21T05:07:43.615Z,80.84
2023-05-21T05:12:49.822Z,80.11
2023-05-21T05:17:56.819Z,79.72
2023-05-21T05:23:02.516Z,79.78
2023-05-21T05:28:07.872Z,79.34
2023-05-21T05:33:13.780Z,79.26
2023-05-21T05:38:19.230Z,78.61
2023-05-21T05:43:26.570Z,77.79
2023-05-21T05:48:31.968Z,77.59
2023-05-21T05:53:37.988Z,76.84
2023-05-21T05:58:43.361Z,76.36
2023-05-21T06:03:48.972Z,75.90
2023-05-21T06:08:54.546Z,75.17
2023-05-21T06:14:01.553Z,75.09
2023-05-21T06:19:07.158Z,74.96
2023-05-21T06:24:12.626Z,74.51
2023-05-21T06:29:18.174Z,74.30
2023-05-21T06:34:23.531Z,73.84
2023-05-21T06:39:28.943Z,73.68
2023-05-21T06:44:34.331Z,73.43
2023-05-21T06:49:39.793Z,73.03
2023-05-21T06:54:45.409Z,72.83
2023-05-21T06:59:50.892Z,72.59
2023-05-21T07:04:56.861Z,72.27
2023-05-21T07:10:02.313Z,71.82
2023-05-21T07:15:09.567Z,71.35
2023-05-21T07:20:15.942Z,71.11
2023-05-21T07:25:21.635Z,70.97
2023-05-21T07:30:37.680Z,70.67
2023-05-21T07:36:06.278Z,70.19
2023-05-21T07:41:11.772Z,69.99
2023-05-21T07:46:17.252Z,69.79
2023-05-21T07:51:23.419Z,68.82
2023-05-21T07:56:29.454Z,68.27
2023-05-21T08:01:37.395Z,67.19
2023-05-21T08:06:42.735Z,66.16
2023-05-21T08:11:48.220Z,65.07
2023-05-21T08:16:53.575Z,63.73
2023-05-21T08:21:59.004Z,62.34
2023-05-21T08:27:04.845Z,61.46
2023-05-21T08:32:10.605Z,60.70
2023-05-21T08:37:18.396Z,60.09
2023-05-21T08:42:37.067Z,58.86
2023-05-21T08:47:44.649Z,57.99
2023-05-21T08:52:51.736Z,57.89
2023-05-21T08:57:57.103Z,56.82
2023-05-21T09:03:07.751Z,56.21
2023-05-21T09:08:18.344Z,55.48
2023-05-21T09:13:25.114Z,55.22
2023-05-21T09:18:30.625Z,54.74
2023-05-21T09:23:36.106Z,54.29
2023-05-21T09:28:41.581Z,53.79
2023-05-21T09:33:48.980Z,53.35
2023-05-21T09:38:54.515Z,52.83
2023-05-21T09:44:01.657Z,53.02
2023-05-21T09:49:07.465Z,52.15
2023-05-21T09:54:13.143Z,51.01
2023-05-21T09:59:18.841Z,50.65
2023-05-21T10:04:25.080Z,49.78
2023-05-21T10:09:31.437Z,49.27
2023-05-21T10:14:37.333Z,48.83
2023-05-21T10:19:43.813Z,48.68
2023-05-21T10:24:50.295Z,47.59
2023-05-21T10:29:57.142Z,47.91
2023-05-21T10:35:02.821Z,47.56
2023-05-21T10:40:11.044Z,47.19
2023-05-21T10:45:23.271Z,46.75
2023-05-21T10:50:54.574Z,46.71
2023-05-21T10:56:12.826Z,46.44
2023-05-21T11:01:19.636Z,46.26
2023-05-21T11:06:27.397Z,45.15
2023-05-21T11:11:44.329Z,44.79
2023-05-21T11:16:49.705Z,44.11
2023-05-21T11:21:56.881Z,44.01
2023-05-21T11:27:04.764Z,44.51
2023-05-21T11:32:11.700Z,44.42
2023-05-21T11:37:29.277Z,43.94
2023-05-21T11:42:39.336Z,43.08
2023-05-21T11:47:46.148Z,42.63
2023-05-21T11:52:52.032Z,41.56
2023-05-21T11:57:58.548Z,41.70
2023-05-21T12:03:05.968Z,40.89
2023-05-21T12:08:11.682Z,40.64
2023-05-21T12:13:17.545Z,40.39
2023-05-21T12:18:23.365Z,40.60
2023-05-21T12:23:30.507Z,39.97
2023-05-21T12:28:36.409Z,39.07
2023-05-21T12:33:44.146Z,39.06
2023-05-21T12:38:49.671Z,38.81
2023-05-21T12:43:55.779Z,38.50
2023-05-21T12:49:01.376Z,38.57
2023-05-21T12:54:14.128Z,38.83
2023-05-21T12:59:19.980Z,38.42
2023-05-21T13:04:25.610Z,38.61
2023-05-21T13:09:31.394Z,38.01
2023-05-21T13:14:36.858Z,37.42
2023-05-21T13:19:42.493Z,37.77
2023-05-21T13:24:48.120Z,37.37
2023-05-21T13:29:53.805Z,37.44
2023-05-21T13:34:59.185Z,37.48
2023-05-21T13:40:05.921Z,37.32
2023-05-21T13:45:14.295Z,36.94
2023-05-21T13:50:19.806Z,37.29
2023-05-21T13:55:25.398Z,37.82
2023-05-21T14:00:31.551Z,37.31
2023-05-21T14:05:37.224Z,37.56
2023-05-21T14:10:42.628Z,36.96
2023-05-21T14:15:48.623Z,37.29
2023-05-21T14:20:54.720Z,37.10
2023-05-21T14:26:00.258Z,37.44
2023-05-21T14:31:06.197Z,37.82
2023-05-21T14:36:11.702Z,37.92
2023-05-21T14:41:20.999Z,37.98
2023-05-21T14:46:27.058Z,38.13
2023-05-21T14:51:32.783Z,38.10
2023-05-21T14:56:38.129Z,37.69
2023-05-21T15:01:43.637Z,38.09
2023-05-21T15:06:49.644Z,37.83
2023-05-21T15:11:54.938Z,37.92
2023-05-21T15:17:00.402Z,38.13
2023-05-21T15:22:05.908Z,38.08
2023-05-21T15:27:11.372Z,38.20
2023-05-21T15:32:36.269Z,38.13
2023-05-21T15:37:43.680Z,37.90
2023-05-21T15:43:10.412Z,38.30
2023-05-21T15:48:26.466Z,38.03
2023-05-21T15:53:52.248Z,38.17
2023-05-21T15:59:19.884Z,38.43
2023-05-21T16:04:45.739Z,38.39
2023-05-21T16:10:11.445Z,38.72
2023-05-21T16:15:37.743Z,38.48
2023-05-21T16:21:04.307Z,38.74
2023-05-21T16:26:30.986Z,38.18
2023-05-21T16:31:56.918Z,38.42
2023-05-21T16:37:24.545Z,38.09
2023-05-21T16:42:50.312Z,38.47
2023-05-21T16:48:17.445Z,38.34
2023-05-21T16:53:44.669Z,38.51
2023-05-21T16:59:12.239Z,38.67
2023-05-21T17:04:37.929Z,38.57
2023-05-21T17:10:04.393Z,38.54
2023-05-21T17:15:31.261Z,38.96
2023-05-21T17:20:57.067Z,39.13
2023-05-21T17:26:18.985Z,39.25
2023-05-21T17:31:46.646Z,39.31
2023-05-21T17:37:15.346Z,39.52
2023-05-21T17:42:41.140Z,39.64
2023-05-21T17:48:07.164Z,39.83
2023-05-21T17:53:32.883Z,40.02
2023-05-21T17:58:58.817Z,40.12
2023-05-21T18:04:26.577Z,40.20
2023-05-21T18:09:52.394Z,40.33
2023-05-21T18:15:18.046Z,40.46
2023-05-21T18:20:43.873Z,40.61
2023-05-21T18:26:09.696Z,41.06
2023-05-21T18:31:36.191Z,41.06
2023-05-21T18:37:01.880Z,41.37
2023-05-21T18:42:28.996Z,41.71
2023-05-21T18:47:55.035Z,41.97
2023-05-21T18:53:20.770Z,42.38
2023-05-21T18:58:40.435Z,42.64
2023-05-21T19:04:06.208Z,42.99
2023-05-21T19:09:32.357Z,43.29
2023-05-21T19:14:57.991Z,43.87
2023-05-21T19:20:24.850Z,44.10
2023-05-21T19:25:50.526Z,44.45
2023-05-21T19:31:16.420Z,44.87
2023-05-21T19:36:52.982Z,45.13
2023-05-21T19:42:09.575Z,45.41
2023-05-21T19:47:18.518Z,45.86
2023-05-21T19:52:44.175Z,46.11
2023-05-21T19:58:04.704Z,46.38
2023-05-21T20:03:30.441Z,46.62
2023-05-21T20:08:56.758Z,47.02
2023-05-21T20:14:22.472Z,47.03
2023-05-21T20:19:48.244Z,47.45
2023-05-21T20:25:13.939Z,47.90
2023-05-21T20:30:40.140Z,48.19
2023-05-21T20:36:06.262Z,48.60
2023-05-21T20:41:32.147Z,48.80
2023-05-21T20:46:58.349Z,49.20
2023-05-21T20:52:24.693Z,49.20
2023-05-21T20:57:43.187Z,49.33
2023-05-21T21:03:08.948Z,49.68
2023-05-21T21:08:34.862Z,49.73
2023-05-21T21:14:00.676Z,49.98
2023-05-21T21:19:21.343Z,50.06
2023-05-21T21:24:31.602Z,50.13
2023-05-21T21:29:57.385Z,50.20
2023-05-21T21:35:13.808Z,50.19
2023-05-21T21:40:40.098Z,50.24
2023-05-21T21:45:59.205Z,50.21
2023-05-21T21:51:25.503Z,50.26
2023-05-21T21:56:51.477Z,50.22
2023-05-21T22:02:17.215Z,50.29
2023-05-21T22:07:42.874Z,50.37
2023-05-21T22:13:08.708Z,50.30
2023-05-21T22:18:40.827Z,50.32
2023-05-21T22:24:09.539Z,50.39
2023-05-21T22:29:40.782Z,50.43
2023-05-21T22:34:48.917Z,50.51
2023-05-21T22:40:14.615Z,50.32
2023-05-21T22:45:40.915Z,50.38
2023-05-21T22:51:01.200Z,50.36
2023-05-21T22:56:27.454Z,50.41
2023-05-21T23:01:53.276Z,50.14
2023-05-21T23:07:19.650Z,50.05
2023-05-21T23:12:45.397Z,49.96
2023-05-21T23:18:11.183Z,49.88
2023-05-21T23:23:37.305Z,49.86
2023-05-21T23:29:02.955Z,49.81
2023-05-21T23:34:28.852Z,49.79
2023-05-21T23:39:45.781Z,49.72
2023-05-21T23:44:54.122Z,49.66
2023-05-21T23:50:19.895Z,49.82
2023-05-21T23:55:45.650Z,49.80
